sensor_id;sensor_type;location;lat;lon;timestamp;P1;durP1;ratioP1;P2;durP2;ratioP2
76850;SDS011;65824;43.726;20.692;2023-11-25T00:00:42;7.80;;;3.03;;
76850;SDS011;65824;43.726;20.692;2023-11-25T00:03:08;6.03;;;2.40;;
76850;SDS011;65824;43.726;20.692;2023-11-25T00:05:34;6.15;;;2.60;;
76850;SDS011;65824;43.726;20.692;2023-11-25T00:08:00;6.82;;;2.75;;
76850;SDS011;65824;43.726;20.692;2023-11-25T00:10:25;6.00;;;2.83;;
76850;SDS011;65824;43.726;20.692;2023-11-25T00:12:52;6.18;;;2.55;;
76850;SDS011;65824;43.726;20.692;2023-11-25T00:15:18;6.53;;;2.63;;
76850;SDS011;65824;43.726;20.692;2023-11-25T00:17:44;6.57;;;2.80;;
76850;SDS011;65824;43.726;20.692;2023-11-25T00:20:13;6.07;;;2.63;;
76850;SDS011;65824;43.726;20.692;2023-11-25T00:22:39;7.07;;;2.80;;
76850;SDS011;65824;43.726;20.692;2023-11-25T00:25:04;6.78;;;2.58;;
76850;SDS011;65824;43.726;20.692;2023-11-25T00:27:30;5.80;;;2.83;;
76850;SDS011;65824;43.726;20.692;2023-11-25T00:29:57;4.97;;;2.30;;
76850;SDS011;65824;43.726;20.692;2023-11-25T00:32:23;5.57;;;2.30;;
76850;SDS011;65824;43.726;20.692;2023-11-25T00:34:49;5.75;;;2.53;;
76850;SDS011;65824;43.726;20.692;2023-11-25T00:37:14;5.25;;;2.72;;
76850;SDS011;65824;43.726;20.692;2023-11-25T00:39:41;7.97;;;3.20;;
76850;SDS011;65824;43.726;20.692;2023-11-25T00:42:06;6.07;;;3.00;;
76850;SDS011;65824;43.726;20.692;2023-11-25T00:44:32;6.57;;;2.90;;
76850;SDS011;65824;43.726;20.692;2023-11-25T00:46:58;5.78;;;3.20;;
76850;SDS011;65824;43.726;20.692;2023-11-25T00:49:25;4.93;;;2.88;;
76850;SDS011;65824;43.726;20.692;2023-11-25T00:51:51;4.93;;;2.25;;
76850;SDS011;65824;43.726;20.692;2023-11-25T00:54:16;6.93;;;2.83;;
76850;SDS011;65824;43.726;20.692;2023-11-25T00:56:42;5.25;;;1.80;;
76850;SDS011;65824;43.726;20.692;2023-11-25T00:59:08;4.50;;;1.83;;
76850;SDS011;65824;43.726;20.692;2023-11-25T01:01:37;3.67;;;1.83;;
76850;SDS011;65824;43.726;20.692;2023-11-25T01:04:02;4.72;;;1.70;;
76850;SDS011;65824;43.726;20.692;2023-11-25T01:06:28;5.68;;;2.00;;
76850;SDS011;65824;43.726;20.692;2023-11-25T01:08:55;7.28;;;2.80;;
76850;SDS011;65824;43.726;20.692;2023-11-25T01:11:20;3.97;;;1.98;;
76850;SDS011;65824;43.726;20.692;2023-11-25T01:13:46;4.00;;;1.85;;
76850;SDS011;65824;43.726;20.692;2023-11-25T01:16:15;4.60;;;2.17;;
76850;SDS011;65824;43.726;20.692;2023-11-25T01:18:41;5.00;;;1.98;;
76850;SDS011;65824;43.726;20.692;2023-11-25T01:21:07;4.72;;;2.20;;
76850;SDS011;65824;43.726;20.692;2023-11-25T01:23:32;7.68;;;2.92;;
76850;SDS011;65824;43.726;20.692;2023-11-25T01:26:00;4.25;;;2.33;;
76850;SDS011;65824;43.726;20.692;2023-11-25T01:28:26;4.55;;;1.98;;
76850;SDS011;65824;43.726;20.692;2023-11-25T01:30:51;4.65;;;2.10;;
76850;SDS011;65824;43.726;20.692;2023-11-25T01:33:18;5.10;;;2.63;;
76850;SDS011;65824;43.726;20.692;2023-11-25T01:35:43;4.82;;;2.30;;
76850;SDS011;65824;43.726;20.692;2023-11-25T01:38:10;6.90;;;2.83;;
76850;SDS011;65824;43.726;20.692;2023-11-25T01:40:36;6.80;;;3.08;;
76850;SDS011;65824;43.726;20.692;2023-11-25T01:43:05;6.03;;;2.72;;
76850;SDS011;65824;43.726;20.692;2023-11-25T01:45:33;4.82;;;2.63;;
76850;SDS011;65824;43.726;20.692;2023-11-25T01:47:58;6.50;;;2.90;;
76850;SDS011;65824;43.726;20.692;2023-11-25T01:50:27;5.47;;;2.85;;
76850;SDS011;65824;43.726;20.692;2023-11-25T01:52:54;7.93;;;2.92;;
76850;SDS011;65824;43.726;20.692;2023-11-25T01:55:20;6.90;;;2.50;;
76850;SDS011;65824;43.726;20.692;2023-11-25T01:57:47;4.95;;;2.50;;
76850;SDS011;65824;43.726;20.692;2023-11-25T02:00:12;4.20;;;1.88;;
76850;SDS011;65824;43.726;20.692;2023-11-25T02:02:41;4.72;;;2.17;;
76850;SDS011;65824;43.726;20.692;2023-11-25T02:05:07;6.10;;;2.15;;
76850;SDS011;65824;43.726;20.692;2023-11-25T02:07:33;4.40;;;2.13;;
76850;SDS011;65824;43.726;20.692;2023-11-25T02:09:59;4.78;;;2.28;;
76850;SDS011;65824;43.726;20.692;2023-11-25T02:12:24;4.55;;;1.90;;
76850;SDS011;65824;43.726;20.692;2023-11-25T02:14:50;5.32;;;2.08;;
76850;SDS011;65824;43.726;20.692;2023-11-25T02:17:15;3.67;;;1.90;;
76850;SDS011;65824;43.726;20.692;2023-11-25T02:19:42;4.25;;;2.15;;
76850;SDS011;65824;43.726;20.692;2023-11-25T02:22:10;4.53;;;1.90;;
76850;SDS011;65824;43.726;20.692;2023-11-25T02:24:36;4.18;;;2.00;;
76850;SDS011;65824;43.726;20.692;2023-11-25T02:27:02;4.45;;;1.85;;
76850;SDS011;65824;43.726;20.692;2023-11-25T02:29:29;4.72;;;2.10;;
76850;SDS011;65824;43.726;20.692;2023-11-25T02:32:00;3.83;;;1.73;;
76850;SDS011;65824;43.726;20.692;2023-11-25T02:34:28;4.32;;;2.10;;
76850;SDS011;65824;43.726;20.692;2023-11-25T02:36:54;8.52;;;3.10;;
76850;SDS011;65824;43.726;20.692;2023-11-25T02:39:23;8.25;;;3.00;;
76850;SDS011;65824;43.726;20.692;2023-11-25T02:41:50;5.22;;;1.90;;
76850;SDS011;65824;43.726;20.692;2023-11-25T02:44:17;3.80;;;1.85;;
76850;SDS011;65824;43.726;20.692;2023-11-25T02:46:46;4.57;;;1.88;;
76850;SDS011;65824;43.726;20.692;2023-11-25T02:49:13;4.22;;;1.83;;
76850;SDS011;65824;43.726;20.692;2023-11-25T02:51:49;3.55;;;1.70;;
76850;SDS011;65824;43.726;20.692;2023-11-25T02:54:16;4.75;;;2.15;;
76850;SDS011;65824;43.726;20.692;2023-11-25T02:56:45;6.28;;;2.30;;
76850;SDS011;65824;43.726;20.692;2023-11-25T02:59:11;5.82;;;2.60;;
76850;SDS011;65824;43.726;20.692;2023-11-25T03:01:38;5.90;;;2.50;;
76850;SDS011;65824;43.726;20.692;2023-11-25T03:04:15;6.10;;;2.78;;
76850;SDS011;65824;43.726;20.692;2023-11-25T03:06:42;6.88;;;2.75;;
76850;SDS011;65824;43.726;20.692;2023-11-25T03:09:11;6.32;;;3.17;;
76850;SDS011;65824;43.726;20.692;2023-11-25T03:11:40;9.38;;;3.50;;
76850;SDS011;65824;43.726;20.692;2023-11-25T03:14:05;12.48;;;4.60;;
76850;SDS011;65824;43.726;20.692;2023-11-25T03:16:34;11.65;;;5.18;;
76850;SDS011;65824;43.726;20.692;2023-11-25T03:19:00;12.60;;;5.97;;
76850;SDS011;65824;43.726;20.692;2023-11-25T03:21:26;15.48;;;6.70;;
76850;SDS011;65824;43.726;20.692;2023-11-25T03:23:52;17.25;;;7.55;;
76850;SDS011;65824;43.726;20.692;2023-11-25T03:26:18;12.02;;;6.10;;
76850;SDS011;65824;43.726;20.692;2023-11-25T03:28:43;9.52;;;4.72;;
76850;SDS011;65824;43.726;20.692;2023-11-25T03:31:10;8.50;;;4.07;;
76850;SDS011;65824;43.726;20.692;2023-11-25T03:33:37;8.75;;;3.90;;
76850;SDS011;65824;43.726;20.692;2023-11-25T03:36:04;8.38;;;3.95;;
76850;SDS011;65824;43.726;20.692;2023-11-25T03:38:32;8.75;;;3.72;;
76850;SDS011;65824;43.726;20.692;2023-11-25T03:40:58;7.95;;;3.80;;
76850;SDS011;65824;43.726;20.692;2023-11-25T03:43:24;8.73;;;4.22;;
76850;SDS011;65824;43.726;20.692;2023-11-25T03:45:49;8.38;;;4.25;;
76850;SDS011;65824;43.726;20.692;2023-11-25T03:48:18;7.63;;;3.75;;
76850;SDS011;65824;43.726;20.692;2023-11-25T03:50:46;7.25;;;3.67;;
76850;SDS011;65824;43.726;20.692;2023-11-25T03:53:12;7.07;;;3.42;;
76850;SDS011;65824;43.726;20.692;2023-11-25T03:55:37;7.97;;;3.88;;
76850;SDS011;65824;43.726;20.692;2023-11-25T03:58:04;7.85;;;3.50;;
76850;SDS011;65824;43.726;20.692;2023-11-25T04:00:30;8.00;;;3.58;;
76850;SDS011;65824;43.726;20.692;2023-11-25T04:02:57;9.52;;;3.90;;
76850;SDS011;65824;43.726;20.692;2023-11-25T04:05:22;9.82;;;3.90;;
76850;SDS011;65824;43.726;20.692;2023-11-25T04:07:48;8.15;;;4.40;;
76850;SDS011;65824;43.726;20.692;2023-11-25T04:10:13;9.07;;;4.00;;
76850;SDS011;65824;43.726;20.692;2023-11-25T04:12:47;8.55;;;4.20;;
76850;SDS011;65824;43.726;20.692;2023-11-25T04:15:14;9.88;;;4.32;;
76850;SDS011;65824;43.726;20.692;2023-11-25T04:17:44;10.35;;;4.45;;
76850;SDS011;65824;43.726;20.692;2023-11-25T04:20:10;8.77;;;4.60;;
76850;SDS011;65824;43.726;20.692;2023-11-25T04:22:42;12.82;;;5.03;;
76850;SDS011;65824;43.726;20.692;2023-11-25T04:25:09;11.50;;;5.13;;
76850;SDS011;65824;43.726;20.692;2023-11-25T04:27:44;9.68;;;4.80;;
76850;SDS011;65824;43.726;20.692;2023-11-25T04:30:15;9.90;;;4.97;;
76850;SDS011;65824;43.726;20.692;2023-11-25T04:32:41;11.60;;;4.72;;
76850;SDS011;65824;43.726;20.692;2023-11-25T04:35:08;9.73;;;5.00;;
76850;SDS011;65824;43.726;20.692;2023-11-25T04:37:34;11.50;;;5.10;;
76850;SDS011;65824;43.726;20.692;2023-11-25T04:40:00;11.90;;;5.18;;
76850;SDS011;65824;43.726;20.692;2023-11-25T04:42:30;11.32;;;5.20;;
76850;SDS011;65824;43.726;20.692;2023-11-25T04:44:55;8.82;;;4.45;;
76850;SDS011;65824;43.726;20.692;2023-11-25T04:47:21;9.10;;;4.20;;
76850;SDS011;65824;43.726;20.692;2023-11-25T04:49:46;9.32;;;3.75;;
76850;SDS011;65824;43.726;20.692;2023-11-25T04:52:12;7.38;;;3.95;;
76850;SDS011;65824;43.726;20.692;2023-11-25T04:54:38;7.25;;;3.60;;
76850;SDS011;65824;43.726;20.692;2023-11-25T04:57:06;7.65;;;3.22;;
76850;SDS011;65824;43.726;20.692;2023-11-25T04:59:32;7.95;;;3.80;;
76850;SDS011;65824;43.726;20.692;2023-11-25T05:01:59;7.93;;;3.85;;
76850;SDS011;65824;43.726;20.692;2023-11-25T05:04:25;7.63;;;3.20;;
76850;SDS011;65824;43.726;20.692;2023-11-25T05:06:52;6.65;;;3.03;;
76850;SDS011;65824;43.726;20.692;2023-11-25T05:09:17;5.35;;;2.60;;
76850;SDS011;65824;43.726;20.692;2023-11-25T05:11:44;6.78;;;2.95;;
76850;SDS011;65824;43.726;20.692;2023-11-25T05:14:09;5.60;;;3.05;;
76850;SDS011;65824;43.726;20.692;2023-11-25T05:16:35;6.05;;;2.78;;
76850;SDS011;65824;43.726;20.692;2023-11-25T05:19:00;5.72;;;2.75;;
76850;SDS011;65824;43.726;20.692;2023-11-25T05:21:28;4.85;;;2.28;;
76850;SDS011;65824;43.726;20.692;2023-11-25T05:23:54;5.72;;;2.70;;
76850;SDS011;65824;43.726;20.692;2023-11-25T05:26:20;5.88;;;2.97;;
76850;SDS011;65824;43.726;20.692;2023-11-25T05:28:45;6.00;;;2.50;;
76850;SDS011;65824;43.726;20.692;2023-11-25T05:31:11;5.45;;;2.30;;
76850;SDS011;65824;43.726;20.692;2023-11-25T05:33:37;4.95;;;2.50;;
76850;SDS011;65824;43.726;20.692;2023-11-25T05:36:02;5.97;;;2.70;;
76850;SDS011;65824;43.726;20.692;2023-11-25T05:38:28;8.00;;;2.45;;
76850;SDS011;65824;43.726;20.692;2023-11-25T05:40:54;6.28;;;2.40;;
76850;SDS011;65824;43.726;20.692;2023-11-25T05:43:22;6.82;;;2.60;;
76850;SDS011;65824;43.726;20.692;2023-11-25T05:45:49;7.65;;;3.33;;
76850;SDS011;65824;43.726;20.692;2023-11-25T05:48:15;7.20;;;4.05;;
76850;SDS011;65824;43.726;20.692;2023-11-25T05:50:42;10.35;;;4.85;;
76850;SDS011;65824;43.726;20.692;2023-11-25T05:53:07;8.20;;;4.32;;
76850;SDS011;65824;43.726;20.692;2023-11-25T05:55:33;8.77;;;4.50;;
76850;SDS011;65824;43.726;20.692;2023-11-25T05:57:59;8.15;;;4.78;;
76850;SDS011;65824;43.726;20.692;2023-11-25T06:00:24;8.15;;;4.53;;
76850;SDS011;65824;43.726;20.692;2023-11-25T06:02:50;9.55;;;4.50;;
76850;SDS011;65824;43.726;20.692;2023-11-25T06:05:17;10.52;;;5.22;;
76850;SDS011;65824;43.726;20.692;2023-11-25T06:07:43;9.07;;;4.45;;
76850;SDS011;65824;43.726;20.692;2023-11-25T06:10:09;11.15;;;5.05;;
76850;SDS011;65824;43.726;20.692;2023-11-25T06:12:36;12.23;;;6.03;;
76850;SDS011;65824;43.726;20.692;2023-11-25T06:15:04;14.00;;;6.75;;
76850;SDS011;65824;43.726;20.692;2023-11-25T06:17:30;21.05;;;9.60;;
76850;SDS011;65824;43.726;20.692;2023-11-25T06:19:57;24.98;;;11.95;;
76850;SDS011;65824;43.726;20.692;2023-11-25T06:22:22;28.10;;;14.05;;
76850;SDS011;65824;43.726;20.692;2023-11-25T06:24:48;23.67;;;11.80;;
76850;SDS011;65824;43.726;20.692;2023-11-25T06:27:16;22.25;;;10.98;;
76850;SDS011;65824;43.726;20.692;2023-11-25T06:29:47;20.33;;;10.73;;
76850;SDS011;65824;43.726;20.692;2023-11-25T06:32:15;17.90;;;10.18;;
76850;SDS011;65824;43.726;20.692;2023-11-25T06:34:42;19.90;;;10.35;;
76850;SDS011;65824;43.726;20.692;2023-11-25T06:37:07;18.52;;;9.43;;
76850;SDS011;65824;43.726;20.692;2023-11-25T06:39:37;16.45;;;9.27;;
76850;SDS011;65824;43.726;20.692;2023-11-25T06:42:04;18.80;;;9.60;;
76850;SDS011;65824;43.726;20.692;2023-11-25T06:44:32;19.33;;;10.15;;
76850;SDS011;65824;43.726;20.692;2023-11-25T06:46:58;17.02;;;9.32;;
76850;SDS011;65824;43.726;20.692;2023-11-25T06:49:23;18.23;;;9.60;;
76850;SDS011;65824;43.726;20.692;2023-11-25T06:51:52;17.88;;;10.02;;
76850;SDS011;65824;43.726;20.692;2023-11-25T06:54:19;16.95;;;9.77;;
76850;SDS011;65824;43.726;20.692;2023-11-25T06:56:44;23.45;;;12.80;;
76850;SDS011;65824;43.726;20.692;2023-11-25T06:59:10;25.90;;;13.57;;
76850;SDS011;65824;43.726;20.692;2023-11-25T07:01:35;21.38;;;11.75;;
76850;SDS011;65824;43.726;20.692;2023-11-25T07:04:02;21.52;;;11.88;;
76850;SDS011;65824;43.726;20.692;2023-11-25T07:06:31;21.40;;;12.40;;
76850;SDS011;65824;43.726;20.692;2023-11-25T07:08:57;28.92;;;15.90;;
76850;SDS011;65824;43.726;20.692;2023-11-25T07:11:28;25.38;;;13.70;;
76850;SDS011;65824;43.726;20.692;2023-11-25T07:13:56;25.55;;;14.00;;
76850;SDS011;65824;43.726;20.692;2023-11-25T07:16:21;25.70;;;14.13;;
76850;SDS011;65824;43.726;20.692;2023-11-25T07:18:47;24.80;;;14.60;;
76850;SDS011;65824;43.726;20.692;2023-11-25T07:21:15;28.85;;;16.42;;
76850;SDS011;65824;43.726;20.692;2023-11-25T07:23:41;33.17;;;18.25;;
76850;SDS011;65824;43.726;20.692;2023-11-25T07:26:10;35.58;;;18.80;;
76850;SDS011;65824;43.726;20.692;2023-11-25T07:28:37;41.33;;;20.38;;
76850;SDS011;65824;43.726;20.692;2023-11-25T07:31:04;37.85;;;21.23;;
76850;SDS011;65824;43.726;20.692;2023-11-25T07:33:29;38.50;;;21.42;;
76850;SDS011;65824;43.726;20.692;2023-11-25T07:35:56;40.00;;;21.50;;
76850;SDS011;65824;43.726;20.692;2023-11-25T07:38:22;44.83;;;23.83;;
76850;SDS011;65824;43.726;20.692;2023-11-25T07:40:48;40.83;;;22.95;;
76850;SDS011;65824;43.726;20.692;2023-11-25T07:43:14;40.05;;;22.48;;
76850;SDS011;65824;43.726;20.692;2023-11-25T07:45:41;44.42;;;23.58;;
76850;SDS011;65824;43.726;20.692;2023-11-25T07:48:07;46.40;;;25.52;;
76850;SDS011;65824;43.726;20.692;2023-11-25T07:50:34;47.08;;;25.67;;
76850;SDS011;65824;43.726;20.692;2023-11-25T07:53:00;47.33;;;26.40;;
76850;SDS011;65824;43.726;20.692;2023-11-25T07:55:27;50.63;;;26.45;;
76850;SDS011;65824;43.726;20.692;2023-11-25T07:57:52;51.97;;;27.00;;
76850;SDS011;65824;43.726;20.692;2023-11-25T08:00:18;52.10;;;28.25;;
76850;SDS011;65824;43.726;20.692;2023-11-25T08:02:45;48.70;;;26.38;;
76850;SDS011;65824;43.726;20.692;2023-11-25T08:05:14;40.72;;;23.10;;
76850;SDS011;65824;43.726;20.692;2023-11-25T08:07:55;41.40;;;22.50;;
76850;SDS011;65824;43.726;20.692;2023-11-25T08:10:32;38.53;;;21.75;;
76850;SDS011;65824;43.726;20.692;2023-11-25T08:12:59;37.38;;;20.83;;
76850;SDS011;65824;43.726;20.692;2023-11-25T08:15:25;40.22;;;21.45;;
76850;SDS011;65824;43.726;20.692;2023-11-25T08:17:51;37.42;;;21.45;;
76850;SDS011;65824;43.726;20.692;2023-11-25T08:20:17;37.33;;;20.45;;
76850;SDS011;65824;43.726;20.692;2023-11-25T08:22:42;36.78;;;18.67;;
76850;SDS011;65824;43.726;20.692;2023-11-25T08:25:11;38.33;;;20.92;;
76850;SDS011;65824;43.726;20.692;2023-11-25T08:27:36;39.42;;;20.58;;
76850;SDS011;65824;43.726;20.692;2023-11-25T08:30:03;34.13;;;17.75;;
76850;SDS011;65824;43.726;20.692;2023-11-25T08:32:40;35.65;;;18.85;;
76850;SDS011;65824;43.726;20.692;2023-11-25T08:35:09;34.45;;;19.80;;
76850;SDS011;65824;43.726;20.692;2023-11-25T08:37:36;33.53;;;17.38;;
76850;SDS011;65824;43.726;20.692;2023-11-25T08:40:04;32.70;;;17.42;;
76850;SDS011;65824;43.726;20.692;2023-11-25T08:42:36;37.08;;;19.67;;
76850;SDS011;65824;43.726;20.692;2023-11-25T08:45:01;30.77;;;17.02;;
76850;SDS011;65824;43.726;20.692;2023-11-25T08:47:27;30.38;;;16.63;;
76850;SDS011;65824;43.726;20.692;2023-11-25T08:49:54;31.58;;;18.30;;
76850;SDS011;65824;43.726;20.692;2023-11-25T08:52:21;33.13;;;18.95;;
76850;SDS011;65824;43.726;20.692;2023-11-25T08:54:47;32.95;;;18.13;;
76850;SDS011;65824;43.726;20.692;2023-11-25T08:57:15;31.77;;;18.30;;
76850;SDS011;65824;43.726;20.692;2023-11-25T08:59:41;31.35;;;18.90;;
76850;SDS011;65824;43.726;20.692;2023-11-25T09:02:07;33.45;;;18.85;;
76850;SDS011;65824;43.726;20.692;2023-11-25T09:04:37;33.05;;;18.80;;
76850;SDS011;65824;43.726;20.692;2023-11-25T09:07:08;30.92;;;17.67;;
76850;SDS011;65824;43.726;20.692;2023-11-25T09:09:38;31.35;;;16.05;;
76850;SDS011;65824;43.726;20.692;2023-11-25T09:12:04;34.33;;;18.60;;
76850;SDS011;65824;43.726;20.692;2023-11-25T09:14:30;29.55;;;17.63;;
76850;SDS011;65824;43.726;20.692;2023-11-25T09:16:55;26.70;;;13.45;;
76850;SDS011;65824;43.726;20.692;2023-11-25T09:19:21;21.45;;;11.13;;
76850;SDS011;65824;43.726;20.692;2023-11-25T09:21:48;18.95;;;11.20;;
76850;SDS011;65824;43.726;20.692;2023-11-25T09:24:14;14.02;;;9.07;;
76850;SDS011;65824;43.726;20.692;2023-11-25T09:26:40;12.90;;;7.05;;
76850;SDS011;65824;43.726;20.692;2023-11-25T09:29:06;14.00;;;6.53;;
76850;SDS011;65824;43.726;20.692;2023-11-25T09:31:31;16.80;;;9.27;;
76850;SDS011;65824;43.726;20.692;2023-11-25T09:33:57;20.05;;;11.20;;
76850;SDS011;65824;43.726;20.692;2023-11-25T09:36:25;17.60;;;9.90;;
76850;SDS011;65824;43.726;20.692;2023-11-25T09:38:50;16.05;;;7.97;;
76850;SDS011;65824;43.726;20.692;2023-11-25T09:41:18;14.80;;;7.78;;
76850;SDS011;65824;43.726;20.692;2023-11-25T09:43:44;11.93;;;7.78;;
76850;SDS011;65824;43.726;20.692;2023-11-25T09:46:11;14.55;;;7.13;;
76850;SDS011;65824;43.726;20.692;2023-11-25T09:48:38;12.52;;;6.30;;
76850;SDS011;65824;43.726;20.692;2023-11-25T09:51:04;10.95;;;5.85;;
76850;SDS011;65824;43.726;20.692;2023-11-25T09:53:33;9.07;;;5.30;;
76850;SDS011;65824;43.726;20.692;2023-11-25T09:56:01;9.13;;;5.15;;
76850;SDS011;65824;43.726;20.692;2023-11-25T09:58:36;8.63;;;4.47;;
76850;SDS011;65824;43.726;20.692;2023-11-25T10:03:34;9.10;;;4.63;;
76850;SDS011;65824;43.726;20.692;2023-11-25T10:06:01;8.45;;;4.53;;
76850;SDS011;65824;43.726;20.692;2023-11-25T10:08:27;10.50;;;4.90;;
76850;SDS011;65824;43.726;20.692;2023-11-25T10:11:01;8.93;;;4.72;;
76850;SDS011;65824;43.726;20.692;2023-11-25T10:13:34;9.50;;;5.32;;
76850;SDS011;65824;43.726;20.692;2023-11-25T10:16:01;9.65;;;5.65;;
76850;SDS011;65824;43.726;20.692;2023-11-25T10:18:27;10.07;;;5.70;;
76850;SDS011;65824;43.726;20.692;2023-11-25T10:20:54;11.75;;;6.20;;
76850;SDS011;65824;43.726;20.692;2023-11-25T10:23:23;10.05;;;5.32;;
76850;SDS011;65824;43.726;20.692;2023-11-25T10:25:53;13.43;;;7.47;;
76850;SDS011;65824;43.726;20.692;2023-11-25T10:28:24;11.13;;;6.57;;
76850;SDS011;65824;43.726;20.692;2023-11-25T10:30:59;8.52;;;5.07;;
76850;SDS011;65824;43.726;20.692;2023-11-25T10:33:28;12.40;;;6.05;;
76850;SDS011;65824;43.726;20.692;2023-11-25T10:35:57;10.95;;;6.30;;
76850;SDS011;65824;43.726;20.692;2023-11-25T10:38:24;9.90;;;5.63;;
76850;SDS011;65824;43.726;20.692;2023-11-25T10:41:01;7.35;;;4.38;;
76850;SDS011;65824;43.726;20.692;2023-11-25T10:43:27;9.77;;;5.18;;
76850;SDS011;65824;43.726;20.692;2023-11-25T10:48:34;9.65;;;5.20;;
76850;SDS011;65824;43.726;20.692;2023-11-25T10:51:03;8.43;;;5.10;;
76850;SDS011;65824;43.726;20.692;2023-11-25T10:53:29;9.05;;;5.45;;
76850;SDS011;65824;43.726;20.692;2023-11-25T10:55:56;9.52;;;5.30;;
76850;SDS011;65824;43.726;20.692;2023-11-25T10:58:23;10.05;;;5.82;;
76850;SDS011;65824;43.726;20.692;2023-11-25T11:00:51;10.55;;;6.20;;
76850;SDS011;65824;43.726;20.692;2023-11-25T11:03:18;14.45;;;7.70;;
76850;SDS011;65824;43.726;20.692;2023-11-25T11:08:24;10.45;;;6.07;;
76850;SDS011;65824;43.726;20.692;2023-11-25T11:10:58;11.80;;;6.25;;
76850;SDS011;65824;43.726;20.692;2023-11-25T11:13:27;11.95;;;5.93;;
76850;SDS011;65824;43.726;20.692;2023-11-25T11:15:56;12.15;;;6.97;;
76850;SDS011;65824;43.726;20.692;2023-11-25T11:18:28;12.45;;;7.20;;
76850;SDS011;65824;43.726;20.692;2023-11-25T11:21:02;19.35;;;8.77;;
76850;SDS011;65824;43.726;20.692;2023-11-25T11:23:30;19.73;;;9.35;;
76850;SDS011;65824;43.726;20.692;2023-11-25T11:26:17;22.98;;;12.55;;
76850;SDS011;65824;43.726;20.692;2023-11-25T11:28:52;18.50;;;8.95;;
76850;SDS011;65824;43.726;20.692;2023-11-25T11:34:13;15.27;;;7.28;;
76850;SDS011;65824;43.726;20.692;2023-11-25T11:36:39;15.65;;;8.20;;
76850;SDS011;65824;43.726;20.692;2023-11-25T11:39:04;13.23;;;6.57;;
76850;SDS011;65824;43.726;20.692;2023-11-25T11:41:30;16.83;;;8.60;;
76850;SDS011;65824;43.726;20.692;2023-11-25T11:44:03;17.45;;;8.95;;
76850;SDS011;65824;43.726;20.692;2023-11-25T11:46:36;16.90;;;9.70;;
76850;SDS011;65824;43.726;20.692;2023-11-25T11:49:06;15.55;;;8.55;;
76850;SDS011;65824;43.726;20.692;2023-11-25T11:51:33;18.30;;;9.13;;
76850;SDS011;65824;43.726;20.692;2023-11-25T11:56:59;14.90;;;7.72;;
76850;SDS011;65824;43.726;20.692;2023-11-25T12:02:31;16.15;;;8.80;;
76850;SDS011;65824;43.726;20.692;2023-11-25T12:05:02;17.02;;;8.23;;
76850;SDS011;65824;43.726;20.692;2023-11-25T12:07:29;19.10;;;9.60;;
76850;SDS011;65824;43.726;20.692;2023-11-25T12:09:56;17.98;;;8.05;;
76850;SDS011;65824;43.726;20.692;2023-11-25T12:12:24;13.73;;;7.32;;
76850;SDS011;65824;43.726;20.692;2023-11-25T12:14:49;15.50;;;8.35;;
76850;SDS011;65824;43.726;20.692;2023-11-25T12:17:15;12.85;;;7.15;;
76850;SDS011;65824;43.726;20.692;2023-11-25T12:19:41;8.98;;;5.63;;
76850;SDS011;65824;43.726;20.692;2023-11-25T12:22:08;11.68;;;4.90;;
76850;SDS011;65824;43.726;20.692;2023-11-25T12:24:36;12.88;;;6.20;;
76850;SDS011;65824;43.726;20.692;2023-11-25T12:27:07;11.88;;;6.90;;
76850;SDS011;65824;43.726;20.692;2023-11-25T12:29:36;15.93;;;7.25;;
76850;SDS011;65824;43.726;20.692;2023-11-25T12:32:02;12.20;;;7.22;;
76850;SDS011;65824;43.726;20.692;2023-11-25T12:34:28;13.88;;;6.63;;
76850;SDS011;65824;43.726;20.692;2023-11-25T12:36:55;12.60;;;6.43;;
76850;SDS011;65824;43.726;20.692;2023-11-25T12:39:21;11.90;;;6.85;;
76850;SDS011;65824;43.726;20.692;2023-11-25T12:41:46;13.57;;;6.57;;
76850;SDS011;65824;43.726;20.692;2023-11-25T12:44:14;13.15;;;7.50;;
76850;SDS011;65824;43.726;20.692;2023-11-25T12:46:41;11.40;;;6.13;;
76850;SDS011;65824;43.726;20.692;2023-11-25T12:49:16;15.15;;;7.30;;
76850;SDS011;65824;43.726;20.692;2023-11-25T12:51:46;17.25;;;8.65;;
76850;SDS011;65824;43.726;20.692;2023-11-25T12:54:15;18.17;;;8.90;;
76850;SDS011;65824;43.726;20.692;2023-11-25T12:56:41;18.90;;;9.60;;
76850;SDS011;65824;43.726;20.692;2023-11-25T12:59:08;19.08;;;9.15;;
76850;SDS011;65824;43.726;20.692;2023-11-25T13:01:33;19.65;;;9.13;;
76850;SDS011;65824;43.726;20.692;2023-11-25T13:04:02;14.80;;;8.13;;
76850;SDS011;65824;43.726;20.692;2023-11-25T13:06:29;12.63;;;6.38;;
76850;SDS011;65824;43.726;20.692;2023-11-25T13:08:55;13.20;;;6.72;;
76850;SDS011;65824;43.726;20.692;2023-11-25T13:11:22;13.30;;;6.05;;
76850;SDS011;65824;43.726;20.692;2023-11-25T13:13:47;11.93;;;5.70;;
76850;SDS011;65824;43.726;20.692;2023-11-25T13:16:12;12.60;;;6.47;;
76850;SDS011;65824;43.726;20.692;2023-11-25T13:18:48;14.52;;;6.80;;
76850;SDS011;65824;43.726;20.692;2023-11-25T13:21:13;14.77;;;7.15;;
76850;SDS011;65824;43.726;20.692;2023-11-25T13:23:39;12.30;;;7.43;;
76850;SDS011;65824;43.726;20.692;2023-11-25T13:26:05;15.52;;;7.57;;
76850;SDS011;65824;43.726;20.692;2023-11-25T13:28:32;19.17;;;9.02;;
76850;SDS011;65824;43.726;20.692;2023-11-25T13:30:59;19.05;;;9.63;;
76850;SDS011;65824;43.726;20.692;2023-11-25T13:33:25;17.48;;;8.35;;
76850;SDS011;65824;43.726;20.692;2023-11-25T13:35:52;12.43;;;6.40;;
76850;SDS011;65824;43.726;20.692;2023-11-25T13:38:17;14.07;;;6.80;;
76850;SDS011;65824;43.726;20.692;2023-11-25T13:40:44;14.55;;;6.72;;
76850;SDS011;65824;43.726;20.692;2023-11-25T13:43:11;12.52;;;7.10;;
76850;SDS011;65824;43.726;20.692;2023-11-25T13:45:42;13.23;;;6.88;;
76850;SDS011;65824;43.726;20.692;2023-11-25T13:48:09;13.93;;;6.80;;
76850;SDS011;65824;43.726;20.692;2023-11-25T13:50:37;15.82;;;8.52;;
76850;SDS011;65824;43.726;20.692;2023-11-25T13:53:02;20.00;;;10.10;;
76850;SDS011;65824;43.726;20.692;2023-11-25T13:55:31;14.57;;;8.13;;
76850;SDS011;65824;43.726;20.692;2023-11-25T13:58:09;17.23;;;8.38;;
76850;SDS011;65824;43.726;20.692;2023-11-25T14:03:06;14.45;;;8.45;;
76850;SDS011;65824;43.726;20.692;2023-11-25T14:05:34;16.85;;;9.27;;
76850;SDS011;65824;43.726;20.692;2023-11-25T14:08:07;19.00;;;9.10;;
76850;SDS011;65824;43.726;20.692;2023-11-25T14:10:33;16.20;;;8.00;;
76850;SDS011;65824;43.726;20.692;2023-11-25T14:13:00;12.80;;;7.00;;
76850;SDS011;65824;43.726;20.692;2023-11-25T14:15:25;11.30;;;6.25;;
76850;SDS011;65824;43.726;20.692;2023-11-25T14:17:52;13.40;;;6.72;;
76850;SDS011;65824;43.726;20.692;2023-11-25T14:20:20;15.43;;;7.10;;
76850;SDS011;65824;43.726;20.692;2023-11-25T14:22:46;13.68;;;6.85;;
76850;SDS011;65824;43.726;20.692;2023-11-25T14:25:13;13.68;;;7.15;;
76850;SDS011;65824;43.726;20.692;2023-11-25T14:27:40;13.15;;;7.57;;
76850;SDS011;65824;43.726;20.692;2023-11-25T14:30:26;16.17;;;8.50;;
76850;SDS011;65824;43.726;20.692;2023-11-25T14:32:53;19.13;;;9.65;;
76850;SDS011;65824;43.726;20.692;2023-11-25T14:35:19;19.42;;;10.38;;
76850;SDS011;65824;43.726;20.692;2023-11-25T14:37:46;23.80;;;11.13;;
76850;SDS011;65824;43.726;20.692;2023-11-25T14:40:13;25.42;;;10.82;;
76850;SDS011;65824;43.726;20.692;2023-11-25T14:42:41;21.67;;;10.05;;